sensor_id;sensor_type;location;lat;lon;timestamp;pressure;altitude;pressure_sealevel;temperature
24586;BMP280;12743;52.262;6.172;2023-10-08T00:00:06;98240.66;;;17.05
24586;BMP280;12743;52.262;6.172;2023-10-08T00:02:51;98317.75;;;17.79
24586;BMP280;12743;52.262;6.172;2023-10-08T00:05:19;98171.94;;;16.64
24586;BMP280;12743;52.262;6.172;2023-10-08T00:07:48;98164.69;;;17.11
24586;BMP280;12743;52.262;6.172;2023-10-08T00:10:17;98083.63;;;16.45
24586;BMP280;12743;52.262;6.172;2023-10-08T00:12:45;97972.16;;;15.84
24586;BMP280;12743;52.262;6.172;2023-10-08T00:15:14;98142.03;;;16.97
24586;BMP280;12743;52.262;6.172;2023-10-08T00:17:40;98110.38;;;17.16
24586;BMP280;12743;52.262;6.172;2023-10-08T00:20:08;98186.94;;;17.26
24586;BMP280;12743;52.262;6.172;2023-10-08T00:22:42;98211.94;;;17.68
24586;BMP280;12743;52.262;6.172;2023-10-08T00:25:09;98166.72;;;17.50
24586;BMP280;12743;52.262;6.172;2023-10-08T00:27:38;98153.16;;;17.27
24586;BMP280;12743;52.262;6.172;2023-10-08T00:30:06;98045.41;;;16.89
24586;BMP280;12743;52.262;6.172;2023-10-08T00:32:44;98104.22;;;17.49
24586;BMP280;12743;52.262;6.172;2023-10-08T00:35:11;98118.13;;;17.32
24586;BMP280;12743;52.262;6.172;2023-10-08T00:37:40;98013.41;;;16.62
24586;BMP280;12743;52.262;6.172;2023-10-08T00:40:08;98085.22;;;16.98
24586;BMP280;12743;52.262;6.172;2023-10-08T00:42:38;98101.41;;;16.79
24586;BMP280;12743;52.262;6.172;2023-10-08T00:45:12;98133.69;;;17.21
24586;BMP280;12743;52.262;6.172;2023-10-08T00:47:40;98019.63;;;16.90
24586;BMP280;12743;52.262;6.172;2023-10-08T00:50:10;98130.69;;;16.97
24586;BMP280;12743;52.262;6.172;2023-10-08T00:52:49;98250.56;;;17.69
24586;BMP280;12743;52.262;6.172;2023-10-08T00:55:29;98109.56;;;16.84
24586;BMP280;12743;52.262;6.172;2023-10-08T00:57:58;98258.06;;;17.28
24586;BMP280;12743;52.262;6.172;2023-10-08T01:00:25;98068.28;;;16.28
24586;BMP280;12743;52.262;6.172;2023-10-08T01:02:58;98282.38;;;17.60
24586;BMP280;12743;52.262;6.172;2023-10-08T01:05:29;98292.66;;;16.65
24586;BMP280;12743;52.262;6.172;2023-10-08T01:08:11;98221.63;;;17.19
24586;BMP280;12743;52.262;6.172;2023-10-08T01:10:39;98294.19;;;17.13
24586;BMP280;12743;52.262;6.172;2023-10-08T01:13:13;98204.50;;;16.52
24586;BMP280;12743;52.262;6.172;2023-10-08T01:15:47;98321.16;;;17.11
24586;BMP280;12743;52.262;6.172;2023-10-08T01:18:18;98319.44;;;17.05
24586;BMP280;12743;52.262;6.172;2023-10-08T01:20:55;98061.22;;;16.12
24586;BMP280;12743;52.262;6.172;2023-10-08T01:23:22;98115.44;;;16.67
24586;BMP280;12743;52.262;6.172;2023-10-08T01:25:54;97847.75;;;15.96
24586;BMP280;12743;52.262;6.172;2023-10-08T01:28:39;97886.16;;;15.88
24586;BMP280;12743;52.262;6.172;2023-10-08T01:31:06;98242.19;;;17.49
24586;BMP280;12743;52.262;6.172;2023-10-08T01:33:34;98371.88;;;16.75
24586;BMP280;12743;52.262;6.172;2023-10-08T01:36:07;98365.22;;;16.42
24586;BMP280;12743;52.262;6.172;2023-10-08T01:38:39;98323.72;;;16.39
24586;BMP280;12743;52.262;6.172;2023-10-08T01:41:09;98400.69;;;17.24
24586;BMP280;12743;52.262;6.172;2023-10-08T01:43:46;98641.13;;;17.30
24586;BMP280;12743;52.262;6.172;2023-10-08T01:46:13;98483.75;;;17.58
24586;BMP280;12743;52.262;6.172;2023-10-08T01:48:42;98362.81;;;16.48
24586;BMP280;12743;52.262;6.172;2023-10-08T01:51:12;98266.56;;;16.88
24586;BMP280;12743;52.262;6.172;2023-10-08T01:53:53;98428.47;;;16.69
24586;BMP280;12743;52.262;6.172;2023-10-08T01:56:21;98570.31;;;17.27
24586;BMP280;12743;52.262;6.172;2023-10-08T01:58:47;98067.09;;;17.49
24586;BMP280;12743;52.262;6.172;2023-10-08T02:01:19;97657.22;;;16.05
24586;BMP280;12743;52.262;6.172;2023-10-08T02:03:46;97789.19;;;16.47
24586;BMP280;12743;52.262;6.172;2023-10-08T02:06:13;97828.06;;;16.98
24586;BMP280;12743;52.262;6.172;2023-10-08T02:08:39;97889.66;;;17.02
24586;BMP280;12743;52.262;6.172;2023-10-08T02:11:07;97795.03;;;16.42
24586;BMP280;12743;52.262;6.172;2023-10-08T02:13:35;98135.44;;;17.24
24586;BMP280;12743;52.262;6.172;2023-10-08T02:16:01;98098.75;;;17.22
24586;BMP280;12743;52.262;6.172;2023-10-08T02:18:28;97936.88;;;16.64
24586;BMP280;12743;52.262;6.172;2023-10-08T02:20:58;98023.91;;;17.27
24586;BMP280;12743;52.262;6.172;2023-10-08T02:23:25;97861.22;;;17.03
24586;BMP280;12743;52.262;6.172;2023-10-08T02:25:52;97704.38;;;16.20
24586;BMP280;12743;52.262;6.172;2023-10-08T02:28:21;97795.09;;;17.09
24586;BMP280;12743;52.262;6.172;2023-10-08T02:30:51;97647.88;;;16.13
24586;BMP280;12743;52.262;6.172;2023-10-08T02:33:17;97850.81;;;16.17
24586;BMP280;12743;52.262;6.172;2023-10-08T02:35:45;98065.16;;;15.32
24586;BMP280;12743;52.262;6.172;2023-10-08T02:38:17;98287.31;;;15.61
24586;BMP280;12743;52.262;6.172;2023-10-08T02:40:45;98491.66;;;15.29
24586;BMP280;12743;52.262;6.172;2023-10-08T02:43:15;98390.81;;;13.73
24586;BMP280;12743;52.262;6.172;2023-10-08T02:45:43;98343.97;;;13.58
24586;BMP280;12743;52.262;6.172;2023-10-08T02:48:14;98602.72;;;14.67
24586;BMP280;12743;52.262;6.172;2023-10-08T02:50:42;98453.63;;;14.28
24586;BMP280;12743;52.262;6.172;2023-10-08T02:53:11;98455.53;;;14.05
24586;BMP280;12743;52.262;6.172;2023-10-08T02:55:38;98481.53;;;14.49
24586;BMP280;12743;52.262;6.172;2023-10-08T02:58:13;98572.31;;;14.35
24586;BMP280;12743;52.262;6.172;2023-10-08T03:00:47;98720.94;;;14.32
24586;BMP280;12743;52.262;6.172;2023-10-08T03:03:15;98538.47;;;13.47
24586;BMP280;12743;52.262;6.172;2023-10-08T03:05:48;98623.66;;;14.54
24586;BMP280;12743;52.262;6.172;2023-10-08T03:08:15;98527.38;;;14.39
24586;BMP280;12743;52.262;6.172;2023-10-08T03:10:52;98606.53;;;14.16
24586;BMP280;12743;52.262;6.172;2023-10-08T03:13:23;98683.91;;;14.63
24586;BMP280;12743;52.262;6.172;2023-10-08T03:15:50;98547.25;;;14.20
24586;BMP280;12743;52.262;6.172;2023-10-08T03:18:30;98765.13;;;15.08
24586;BMP280;12743;52.262;6.172;2023-10-08T03:21:14;98356.63;;;12.60
24586;BMP280;12743;52.262;6.172;2023-10-08T03:23:51;98719.84;;;13.66
24586;BMP280;12743;52.262;6.172;2023-10-08T03:26:19;98722.09;;;13.64
24586;BMP280;12743;52.262;6.172;2023-10-08T03:29:03;98664.78;;;13.71
24586;BMP280;12743;52.262;6.172;2023-10-08T03:31:34;98562.13;;;13.54
24586;BMP280;12743;52.262;6.172;2023-10-08T03:34:19;98675.31;;;13.71
24586;BMP280;12743;52.262;6.172;2023-10-08T03:36:49;98789.00;;;13.84
24586;BMP280;12743;52.262;6.172;2023-10-08T03:39:17;98544.28;;;12.60
24586;BMP280;12743;52.262;6.172;2023-10-08T03:41:45;98808.75;;;14.40
24586;BMP280;12743;52.262;6.172;2023-10-08T03:44:24;98964.69;;;14.26
24586;BMP280;12743;52.262;6.172;2023-10-08T03:46:51;98824.75;;;13.89
24586;BMP280;12743;52.262;6.172;2023-10-08T03:49:19;98944.41;;;14.53
24586;BMP280;12743;52.262;6.172;2023-10-08T03:51:49;98908.38;;;14.70
24586;BMP280;12743;52.262;6.172;2023-10-08T03:54:19;98894.28;;;13.68
24586;BMP280;12743;52.262;6.172;2023-10-08T03:56:56;98878.38;;;13.82
24586;BMP280;12743;52.262;6.172;2023-10-08T03:59:23;98771.69;;;13.39
24586;BMP280;12743;52.262;6.172;2023-10-08T04:02:07;99000.06;;;14.32
24586;BMP280;12743;52.262;6.172;2023-10-08T04:04:59;98846.00;;;13.27
24586;BMP280;12743;52.262;6.172;2023-10-08T04:07:26;98721.22;;;13.40
24586;BMP280;12743;52.262;6.172;2023-10-08T04:10:00;98877.50;;;14.29
24586;BMP280;12743;52.262;6.172;2023-10-08T04:12:37;98963.16;;;13.77
24586;BMP280;12743;52.262;6.172;2023-10-08T04:15:11;98851.13;;;14.60
24586;BMP280;12743;52.262;6.172;2023-10-08T04:17:43;98867.91;;;14.42
24586;BMP280;12743;52.262;6.172;2023-10-08T04:20:12;98730.50;;;13.55
24586;BMP280;12743;52.262;6.172;2023-10-08T04:23:01;99023.84;;;14.32
24586;BMP280;12743;52.262;6.172;2023-10-08T04:25:29;98974.75;;;14.38
24586;BMP280;12743;52.262;6.172;2023-10-08T04:27:59;98840.81;;;14.05
24586;BMP280;12743;52.262;6.172;2023-10-08T04:30:29;99043.84;;;14.29
24586;BMP280;12743;52.262;6.172;2023-10-08T04:33:05;99008.25;;;13.97
24586;BMP280;12743;52.262;6.172;2023-10-08T04:35:41;98872.97;;;13.48
24586;BMP280;12743;52.262;6.172;2023-10-08T04:38:15;98969.66;;;14.58
24586;BMP280;12743;52.262;6.172;2023-10-08T04:40:45;99009.06;;;14.41
24586;BMP280;12743;52.262;6.172;2023-10-08T04:43:15;98958.91;;;13.94
24586;BMP280;12743;52.262;6.172;2023-10-08T04:45:49;99049.78;;;14.85
24586;BMP280;12743;52.262;6.172;2023-10-08T04:48:16;98956.03;;;14.22
24586;BMP280;12743;52.262;6.172;2023-10-08T04:50:52;99030.63;;;14.74
24586;BMP280;12743;52.262;6.172;2023-10-08T04:55:59;98988.09;;;13.73
24586;BMP280;12743;52.262;6.172;2023-10-08T04:58:33;99054.44;;;14.70
24586;BMP280;12743;52.262;6.172;2023-10-08T05:01:03;98981.03;;;13.55
24586;BMP280;12743;52.262;6.172;2023-10-08T05:03:51;98834.31;;;13.76
24586;BMP280;12743;52.262;6.172;2023-10-08T05:06:32;98884.03;;;13.77
24586;BMP280;12743;52.262;6.172;2023-10-08T05:09:10;99086.78;;;14.37
24586;BMP280;12743;52.262;6.172;2023-10-08T05:11:50;99031.84;;;14.66
24586;BMP280;12743;52.262;6.172;2023-10-08T05:14:19;98984.28;;;14.66
24586;BMP280;12743;52.262;6.172;2023-10-08T05:17:05;98912.63;;;13.86
24586;BMP280;12743;52.262;6.172;2023-10-08T05:19:45;99052.47;;;14.81
24586;BMP280;12743;52.262;6.172;2023-10-08T05:22:15;99038.50;;;14.36
24586;BMP280;12743;52.262;6.172;2023-10-08T05:24:56;99027.72;;;14.17
24586;BMP280;12743;52.262;6.172;2023-10-08T05:27:43;98966.06;;;14.37
24586;BMP280;12743;52.262;6.172;2023-10-08T05:30:25;98990.28;;;14.66
24586;BMP280;12743;52.262;6.172;2023-10-08T05:32:52;98990.31;;;14.29
24586;BMP280;12743;52.262;6.172;2023-10-08T05:35:40;99017.91;;;14.21
24586;BMP280;12743;52.262;6.172;2023-10-08T05:38:12;99064.81;;;14.50
24586;BMP280;12743;52.262;6.172;2023-10-08T05:40:58;98916.66;;;13.97
24586;BMP280;12743;52.262;6.172;2023-10-08T05:43:30;99004.47;;;14.05
24586;BMP280;12743;52.262;6.172;2023-10-08T05:46:06;98924.88;;;13.58
24586;BMP280;12743;52.262;6.172;2023-10-08T05:49:07;98959.03;;;14.61
24586;BMP280;12743;52.262;6.172;2023-10-08T05:51:36;98927.94;;;14.01
24586;BMP280;12743;52.262;6.172;2023-10-08T05:54:17;98931.97;;;13.65
24586;BMP280;12743;52.262;6.172;2023-10-08T05:57:07;98915.22;;;14.30
24586;BMP280;12743;52.262;6.172;2023-10-08T06:02:27;98991.38;;;14.35
24586;BMP280;12743;52.262;6.172;2023-10-08T06:05:07;98851.69;;;13.73
24586;BMP280;12743;52.262;6.172;2023-10-08T06:07:51;99013.22;;;13.91
24586;BMP280;12743;52.262;6.172;2023-10-08T06:10:31;98803.00;;;13.33
24586;BMP280;12743;52.262;6.172;2023-10-08T06:13:01;98954.00;;;14.36
24586;BMP280;12743;52.262;6.172;2023-10-08T06:15:38;98926.44;;;14.00
24586;BMP280;12743;52.262;6.172;2023-10-08T06:18:27;99000.97;;;13.60
24586;BMP280;12743;52.262;6.172;2023-10-08T06:20:56;99010.06;;;14.10
24586;BMP280;12743;52.262;6.172;2023-10-08T06:23:26;98889.56;;;13.93
24586;BMP280;12743;52.262;6.172;2023-10-08T06:25:55;98941.25;;;13.84
24586;BMP280;12743;52.262;6.172;2023-10-08T06:28:26;99070.41;;;14.08
24586;BMP280;12743;52.262;6.172;2023-10-08T06:30:55;98811.38;;;12.49
24586;BMP280;12743;52.262;6.172;2023-10-08T06:33:23;98887.53;;;13.02
24586;BMP280;12743;52.262;6.172;2023-10-08T06:35:57;98812.66;;;13.50
24586;BMP280;12743;52.262;6.172;2023-10-08T06:38:53;99033.22;;;13.89
24586;BMP280;12743;52.262;6.172;2023-10-08T06:41:20;98895.31;;;13.30
24586;BMP280;12743;52.262;6.172;2023-10-08T06:44:09;98916.84;;;13.76
24586;BMP280;12743;52.262;6.172;2023-10-08T06:46:41;98949.31;;;13.69
24586;BMP280;12743;52.262;6.172;2023-10-08T06:49:09;98850.50;;;13.30
24586;BMP280;12743;52.262;6.172;2023-10-08T06:51:41;99022.13;;;14.08
24586;BMP280;12743;52.262;6.172;2023-10-08T06:54:10;99118.31;;;14.62
24586;BMP280;12743;52.262;6.172;2023-10-08T06:56:40;99256.44;;;13.68
24586;BMP280;12743;52.262;6.172;2023-10-08T06:59:13;99156.75;;;14.11
24586;BMP280;12743;52.262;6.172;2023-10-08T07:01:40;99248.84;;;14.68
24586;BMP280;12743;52.262;6.172;2023-10-08T07:04:13;99346.19;;;14.73
24586;BMP280;12743;52.262;6.172;2023-10-08T07:06:43;99223.50;;;14.15
24586;BMP280;12743;52.262;6.172;2023-10-08T07:09:12;99113.66;;;13.52
24586;BMP280;12743;52.262;6.172;2023-10-08T07:11:55;99156.13;;;13.83
24586;BMP280;12743;52.262;6.172;2023-10-08T07:14:28;99271.06;;;13.98
24586;BMP280;12743;52.262;6.172;2023-10-08T07:16:57;99210.22;;;14.26
24586;BMP280;12743;52.262;6.172;2023-10-08T07:19:26;99154.59;;;13.89
24586;BMP280;12743;52.262;6.172;2023-10-08T07:22:00;99295.50;;;14.19
24586;BMP280;12743;52.262;6.172;2023-10-08T07:24:34;99259.34;;;14.02
24586;BMP280;12743;52.262;6.172;2023-10-08T07:27:01;99256.94;;;14.39
24586;BMP280;12743;52.262;6.172;2023-10-08T07:29:32;99264.88;;;14.36
24586;BMP280;12743;52.262;6.172;2023-10-08T07:31:59;99233.41;;;13.76
24586;BMP280;12743;52.262;6.172;2023-10-08T07:34:37;99233.84;;;14.50
24586;BMP280;12743;52.262;6.172;2023-10-08T07:37:04;99299.09;;;14.61
24586;BMP280;12743;52.262;6.172;2023-10-08T07:39:32;99203.38;;;13.24
24586;BMP280;12743;52.262;6.172;2023-10-08T07:42:05;99144.91;;;13.57
24586;BMP280;12743;52.262;6.172;2023-10-08T07:44:32;99093.44;;;13.11
24586;BMP280;12743;52.262;6.172;2023-10-08T07:47:03;99160.69;;;13.71
24586;BMP280;12743;52.262;6.172;2023-10-08T07:49:32;99212.63;;;13.99
24586;BMP280;12743;52.262;6.172;2023-10-08T07:51:58;99240.97;;;13.67
24586;BMP280;12743;52.262;6.172;2023-10-08T07:54:26;99165.72;;;13.10
24586;BMP280;12743;52.262;6.172;2023-10-08T07:56:56;99207.13;;;13.13
24586;BMP280;12743;52.262;6.172;2023-10-08T07:59:36;99268.50;;;13.45
24586;BMP280;12743;52.262;6.172;2023-10-08T08:02:05;99299.66;;;14.24
24586;BMP280;12743;52.262;6.172;2023-10-08T08:04:42;99338.56;;;13.78
24586;BMP280;12743;52.262;6.172;2023-10-08T08:07:18;99289.44;;;14.26
24586;BMP280;12743;52.262;6.172;2023-10-08T08:09:49;99348.66;;;14.35
24586;BMP280;12743;52.262;6.172;2023-10-08T08:12:26;99400.59;;;14.63
24586;BMP280;12743;52.262;6.172;2023-10-08T08:14:54;99540.13;;;13.45
24586;BMP280;12743;52.262;6.172;2023-10-08T08:17:21;99486.72;;;13.69
24586;BMP280;12743;52.262;6.172;2023-10-08T08:19:50;99443.34;;;13.73
24586;BMP280;12743;52.262;6.172;2023-10-08T08:22:19;99590.09;;;14.38
24586;BMP280;12743;52.262;6.172;2023-10-08T08:24:51;99739.41;;;14.04
24586;BMP280;12743;52.262;6.172;2023-10-08T08:27:24;99590.81;;;14.07
24586;BMP280;12743;52.262;6.172;2023-10-08T08:29:53;99649.56;;;13.76
24586;BMP280;12743;52.262;6.172;2023-10-08T08:32:22;99810.22;;;14.81
24586;BMP280;12743;52.262;6.172;2023-10-08T08:34:50;99873.72;;;14.95
24586;BMP280;12743;52.262;6.172;2023-10-08T08:37:17;99898.88;;;14.54
24586;BMP280;12743;52.262;6.172;2023-10-08T08:39:44;99936.06;;;14.99
24586;BMP280;12743;52.262;6.172;2023-10-08T08:42:12;99937.88;;;14.81
24586;BMP280;12743;52.262;6.172;2023-10-08T08:44:43;99987.41;;;14.30
24586;BMP280;12743;52.262;6.172;2023-10-08T08:47:13;99963.47;;;14.67
24586;BMP280;12743;52.262;6.172;2023-10-08T08:49:49;99879.03;;;14.16
24586;BMP280;12743;52.262;6.172;2023-10-08T08:52:19;100183.91;;;15.06
24586;BMP280;12743;52.262;6.172;2023-10-08T08:54:46;100057.28;;;13.96
24586;BMP280;12743;52.262;6.172;2023-10-08T08:57:14;100205.13;;;14.69
24586;BMP280;12743;52.262;6.172;2023-10-08T08:59:49;100165.19;;;14.78
24586;BMP280;12743;52.262;6.172;2023-10-08T09:02:19;100065.50;;;13.54
24586;BMP280;12743;52.262;6.172;2023-10-08T09:04:48;100206.00;;;14.43
24586;BMP280;12743;52.262;6.172;2023-10-08T09:07:23;100090.38;;;13.90
24586;BMP280;12743;52.262;6.172;2023-10-08T09:09:49;100208.81;;;14.21
24586;BMP280;12743;52.262;6.172;2023-10-08T09:12:17;100273.28;;;14.86
24586;BMP280;12743;52.262;6.172;2023-10-08T09:14:44;100171.34;;;13.79
24586;BMP280;12743;52.262;6.172;2023-10-08T09:17:16;100246.84;;;14.49
24586;BMP280;12743;52.262;6.172;2023-10-08T09:19:43;100337.34;;;14.43
24586;BMP280;12743;52.262;6.172;2023-10-08T09:22:10;100266.66;;;14.33
24586;BMP280;12743;52.262;6.172;2023-10-08T09:24:40;100173.63;;;13.50
24586;BMP280;12743;52.262;6.172;2023-10-08T09:27:11;100158.16;;;13.49
24586;BMP280;12743;52.262;6.172;2023-10-08T09:29:41;100269.88;;;14.16
24586;BMP280;12743;52.262;6.172;2023-10-08T09:32:12;100247.88;;;14.38
24586;BMP280;12743;52.262;6.172;2023-10-08T09:34:52;100383.59;;;15.73
24586;BMP280;12743;52.262;6.172;2023-10-08T09:37:19;100259.50;;;14.33
24586;BMP280;12743;52.262;6.172;2023-10-08T09:39:49;100419.63;;;15.85
24586;BMP280;12743;52.262;6.172;2023-10-08T09:42:19;100396.94;;;15.84
24586;BMP280;12743;52.262;6.172;2023-10-08T09:44:48;100393.66;;;15.50
24586;BMP280;12743;52.262;6.172;2023-10-08T09:47:20;100514.25;;;16.39
24586;BMP280;12743;52.262;6.172;2023-10-08T09:50:03;100513.53;;;15.91
24586;BMP280;12743;52.262;6.172;2023-10-08T09:53:01;100562.31;;;16.34
24586;BMP280;12743;52.262;6.172;2023-10-08T09:55:32;100571.06;;;15.94
24586;BMP280;12743;52.262;6.172;2023-10-08T09:57:59;100504.47;;;15.95
24586;BMP280;12743;52.262;6.172;2023-10-08T10:00:27;100614.56;;;15.93
24586;BMP280;12743;52.262;6.172;2023-10-08T10:02:59;100705.44;;;15.67
24586;BMP280;12743;52.262;6.172;2023-10-08T10:05:31;100708.09;;;15.67
24586;BMP280;12743;52.262;6.172;2023-10-08T10:07:58;100530.84;;;15.11
24586;BMP280;12743;52.262;6.172;2023-10-08T10:10:26;100654.38;;;15.37
24586;BMP280;12743;52.262;6.172;2023-10-08T10:12:57;100591.22;;;15.69
24586;BMP280;12743;52.262;6.172;2023-10-08T10:15:26;100670.69;;;15.72
24586;BMP280;12743;52.262;6.172;2023-10-08T10:18:08;100703.22;;;16.02
24586;BMP280;12743;52.262;6.172;2023-10-08T10:23:44;100653.03;;;15.80
24586;BMP280;12743;52.262;6.172;2023-10-08T10:26:28;100668.75;;;15.99
24586;BMP280;12743;52.262;6.172;2023-10-08T10:34:22;100616.88;;;15.61
24586;BMP280;12743;52.262;6.172;2023-10-08T10:36:50;100704.78;;;16.44
24586;BMP280;12743;52.262;6.172;2023-10-08T10:39:22;100713.50;;;16.07
24586;BMP280;12743;52.262;6.172;2023-10-08T10:42:00;100714.41;;;16.22
24586;BMP280;12743;52.262;6.172;2023-10-08T10:44:29;100746.06;;;16.11
24586;BMP280;12743;52.262;6.172;2023-10-08T10:46:57;100738.38;;;15.99
24586;BMP280;12743;52.262;6.172;2023-10-08T10:49:51;100723.09;;;16.19
24586;BMP280;12743;52.262;6.172;2023-10-08T10:52:21;100753.16;;;16.34
24586;BMP280;12743;52.262;6.172;2023-10-08T10:55:12;100769.84;;;16.38
24586;BMP280;12743;52.262;6.172;2023-10-08T10:57:43;100824.69;;;16.67
24586;BMP280;12743;52.262;6.172;2023-10-08T11:00:11;100777.78;;;16.38
24586;BMP280;12743;52.262;6.172;2023-10-08T11:02:56;100843.34;;;16.07
24586;BMP280;12743;52.262;6.172;2023-10-08T11:05:27;100801.34;;;16.09
24586;BMP280;12743;52.262;6.172;2023-10-08T11:07:57;100852.63;;;16.54
24586;BMP280;12743;52.262;6.172;2023-10-08T11:10:36;100767.25;;;16.08
24586;BMP280;12743;52.262;6.172;2023-10-08T11:13:09;100779.03;;;16.44
24586;BMP280;12743;52.262;6.172;2023-10-08T11:15:43;100810.44;;;16.82
24586;BMP280;12743;52.262;6.172;2023-10-08T11:18:13;100878.03;;;16.95
24586;BMP280;12743;52.262;6.172;2023-10-08T11:20:44;100855.31;;;16.97
24586;BMP280;12743;52.262;6.172;2023-10-08T11:23:35;100870.97;;;17.06
24586;BMP280;12743;52.262;6.172;2023-10-08T11:26:04;100879.75;;;17.17
24586;BMP280;12743;52.262;6.172;2023-10-08T11:28:34;100839.53;;;16.71
24586;BMP280;12743;52.262;6.172;2023-10-08T11:31:03;100873.19;;;17.04
24586;BMP280;12743;52.262;6.172;2023-10-08T11:33:36;100848.00;;;16.87
24586;BMP280;12743;52.262;6.172;2023-10-08T11:36:04;100896.72;;;17.02
24586;BMP280;12743;52.262;6.172;2023-10-08T11:38:47;100871.72;;;17.10
24586;BMP280;12743;52.262;6.172;2023-10-08T11:41:15;100798.97;;;16.71
24586;BMP280;12743;52.262;6.172;2023-10-08T11:43:52;100848.38;;;17.26
24586;BMP280;12743;52.262;6.172;2023-10-08T11:46:30;100862.41;;;17.30
24586;BMP280;12743;52.262;6.172;2023-10-08T11:49:05;100835.44;;;16.81
24586;BMP280;12743;52.262;6.172;2023-10-08T11:51:35;100835.59;;;16.95
24586;BMP280;12743;52.262;6.172;2023-10-08T11:54:02;100699.81;;;16.02
24586;BMP280;12743;52.262;6.172;2023-10-08T11:56:29;100860.59;;;16.94
24586;BMP280;12743;52.262;6.172;2023-10-08T11:58:56;100807.22;;;16.62
24586;BMP280;12743;52.262;6.172;2023-10-08T12:01:26;100839.97;;;16.77
24586;BMP280;12743;52.262;6.172;2023-10-08T12:03:53;100840.41;;;16.46
24586;BMP280;12743;52.262;6.172;2023-10-08T12:06:26;100885.22;;;16.94
24586;BMP280;12743;52.262;6.172;2023-10-08T12:08:57;100751.00;;;16.09
24586;BMP280;12743;52.262;6.172;2023-10-08T12:11:26;100820.69;;;16.80
24586;BMP280;12743;52.262;6.172;2023-10-08T12:13:57;100839.44;;;17.01
24586;BMP280;12743;52.262;6.172;2023-10-08T12:16:27;100727.63;;;16.55
24586;BMP280;12743;52.262;6.172;2023-10-08T12:19:02;100841.66;;;17.43
24586;BMP280;12743;52.262;6.172;2023-10-08T12:21:35;100817.66;;;17.25
24586;BMP280;12743;52.262;6.172;2023-10-08T12:24:03;100741.59;;;16.96
24586;BMP280;12743;52.262;6.172;2023-10-08T12:26:32;100863.31;;;17.45
24586;BMP280;12743;52.262;6.172;2023-10-08T12:28:58;100829.84;;;17.37
24586;BMP280;12743;52.262;6.172;2023-10-08T12:31:27;100842.50;;;17.54
24586;BMP280;12743;52.262;6.172;2023-10-08T12:33:55;100918.69;;;17.43
24586;BMP280;12743;52.262;6.172;2023-10-08T12:36:26;100736.00;;;16.61
24586;BMP280;12743;52.262;6.172;2023-10-08T12:38:59;100821.41;;;17.24
24586;BMP280;12743;52.262;6.172;2023-10-08T12:41:26;100859.97;;;17.55
24586;BMP280;12743;52.262;6.172;2023-10-08T12:43:53;100884.31;;;17.64
24586;BMP280;12743;52.262;6.172;2023-10-08T12:46:21;100821.75;;;17.16
24586;BMP280;12743;52.262;6.172;2023-10-08T12:48:51;100821.66;;;17.56
24586;BMP280;12743;52.262;6.172;2023-10-08T12:51:21;100620.47;;;15.79
24586;BMP280;12743;52.262;6.172;2023-10-08T12:53:55;100847.28;;;17.34
24586;BMP280;12743;52.262;6.172;2023-10-08T12:56:26;100833.25;;;17.34
24586;BMP280;12743;52.262;6.172;2023-10-08T12:59:02;100701.03;;;16.11
24586;BMP280;12743;52.262;6.172;2023-10-08T13:01:35;100791.56;;;16.87
24586;BMP280;12743;52.262;6.172;2023-10-08T13:04:08;100778.69;;;17.43
24586;BMP280;12743;52.262;6.172;2023-10-08T13:06:42;100809.16;;;17.63
24586;BMP280;12743;52.262;6.172;2023-10-08T13:09:12;100854.53;;;17.99
24586;BMP280;12743;52.262;6.172;2023-10-08T13:11:39;100810.53;;;17.43
24586;BMP280;12743;52.262;6.172;2023-10-08T13:14:06;100743.53;;;16.55
24586;BMP280;12743;52.262;6.172;2023-10-08T13:16:33;100860.84;;;17.22
24586;BMP280;12743;52.262;6.172;2023-10-08T13:19:04;100783.03;;;17.11
24586;BMP280;12743;52.262;6.172;2023-10-08T13:21:31;100738.13;;;16.48
24586;BMP280;12743;52.262;6.172;2023-10-08T13:23:59;100708.56;;;16.43
24586;BMP280;12743;52.262;6.172;2023-10-08T13:26:26;100856.38;;;17.30
24586;BMP280;12743;52.262;6.172;2023-10-08T13:28:58;100834.78;;;17.35
24586;BMP280;12743;52.262;6.172;2023-10-08T13:31:25;100769.34;;;17.06
24586;BMP280;12743;52.262;6.172;2023-10-08T13:33:53;100769.66;;;16.57
24586;BMP280;12743;52.262;6.172;2023-10-08T13:36:23;100611.28;;;16.03
24586;BMP280;12743;52.262;6.172;2023-10-08T13:38:50;100755.78;;;16.70
24586;BMP280;12743;52.262;6.172;2023-10-08T13:41:18;100740.34;;;16.83
24586;BMP280;12743;52.262;6.172;2023-10-08T13:43:46;100687.53;;;16.67
24586;BMP280;12743;52.262;6.172;2023-10-08T13:46:16;100819.19;;;17.33
24586;BMP280;12743;52.262;6.172;2023-10-08T13:48:45;100748.59;;;16.71
24586;BMP280;12743;52.262;6.172;2023-10-08T13:51:23;100670.34;;;16.98
24586;BMP280;12743;52.262;6.172;2023-10-08T13:53:55;100746.53;;;17.55
24586;BMP280;12743;52.262;6.172;2023-10-08T13:56:29;100703.03;;;17.13
24586;BMP280;12743;52.262;6.172;2023-10-08T13:58:59;100687.16;;;17.23
24586;BMP280;12743;52.262;6.172;2023-10-08T14:01:41;100791.97;;;17.43
24586;BMP280;12743;52.262;6.172;2023-10-08T14:04:18;100659.56;;;16.70
24586;BMP280;12743;52.262;6.172;2023-10-08T14:06:53;100760.53;;;17.52
24586;BMP280;12743;52.262;6.172;2023-10-08T14:09:22;100668.16;;;16.56
24586;BMP280;12743;52.262;6.172;2023-10-08T14:11:58;100706.84;;;17.12
24586;BMP280;12743;52.262;6.172;2023-10-08T14:14:26;100738.72;;;17.22
24586;BMP280;12743;52.262;6.172;2023-10-08T14:16:58;100719.84;;;16.76
24586;BMP280;12743;52.262;6.172;2023-10-08T14:19:37;100738.59;;;17.01
24586;BMP280;12743;52.262;6.172;2023-10-08T14:22:18;100686.63;;;16.46
24586;BMP280;12743;52.262;6.172;2023-10-08T14:24:48;100712.44;;;17.03
24586;BMP280;12743;52.262;6.172;2023-10-08T14:27:26;100664.78;;;16.59
24586;BMP280;12743;52.262;6.172;2023-10-08T14:29:59;100688.22;;;16.54
24586;BMP280;12743;52.262;6.172;2023-10-08T14:32:32;100612.41;;;16.49
24586;BMP280;12743;52.262;6.172;2023-10-08T14:35:01;100690.59;;;16.66
24586;BMP280;12743;52.262;6.172;2023-10-08T14:37:49;100521.72;;;15.79
24586;BMP280;12743;52.262;6.172;2023-10-08T14:40:34;100586.34;;;16.62
24586;BMP280;12743;52.262;6.172;2023-10-08T14:43:20;100546.22;;;16.63
24586;BMP280;12743;52.262;6.172;2023-10-08T14:45:49;100648.25;;;16.76